createdAt,value
2023-04-16T00:01:12.221Z,9.87
2023-04-16T00:03:38.986Z,9.87
2023-04-16T00:06:05.702Z,9.84
2023-04-16T00:08:32.014Z,9.79
2023-04-16T00:10:58.464Z,9.84
2023-04-16T00:13:24.937Z,9.86
2023-04-16T00:15:52.256Z,9.85
2023-04-16T00:18:18.597Z,9.83
2023-04-16T00:20:45.093Z,9.83
2023-04-16T00:23:11.410Z,9.81
2023-04-16T00:25:37.753Z,9.81
2023-04-16T00:28:05.517Z,9.81
2023-04-16T00:30:31.932Z,9.84
2023-04-16T00:32:58.380Z,9.81
2023-04-16T00:35:24.725Z,9.86
2023-04-16T00:37:51.394Z,9.83
2023-04-16T00:40:17.793Z,9.86
2023-04-16T00:42:45.760Z,9.90
2023-04-16T00:45:12.177Z,9.85
2023-04-16T00:47:39.457Z,9.87
2023-04-16T00:50:06.586Z,9.87
2023-04-16T00:52:33.062Z,9.88
2023-04-16T00:54:59.577Z,9.78
2023-04-16T00:57:26.028Z,9.84
2023-04-16T00:59:52.814Z,9.86
2023-04-16T01:02:19.478Z,9.86
2023-04-16T01:04:46.001Z,9.87
2023-04-16T01:07:12.379Z,9.88
2023-04-16T01:09:38.927Z,9.79
2023-04-16T01:12:05.290Z,9.80
2023-04-16T01:14:31.683Z,9.81
2023-04-16T01:16:58.381Z,9.79
2023-04-16T01:19:24.870Z,9.88
2023-04-16T01:21:51.170Z,9.82
2023-04-16T01:24:17.569Z,9.82
2023-04-16T01:26:43.973Z,9.84
2023-04-16T01:29:10.533Z,9.85
2023-04-16T01:31:37.368Z,9.84
2023-04-16T01:34:03.816Z,9.83
2023-04-16T01:36:33.187Z,9.83
2023-04-16T01:38:59.498Z,9.87
2023-04-16T01:41:26.569Z,9.88
2023-04-16T01:43:53.002Z,9.85
2023-04-16T01:46:31.163Z,9.83
2023-04-16T01:48:58.699Z,9.88
2023-04-16T01:51:25.105Z,9.88
2023-04-16T01:53:51.565Z,9.86
2023-04-16T01:56:17.905Z,9.88
2023-04-16T01:58:44.330Z,9.80
2023-04-16T02:01:10.749Z,9.83
2023-04-16T02:03:37.825Z,9.75
2023-04-16T02:06:04.452Z,9.78
2023-04-16T02:08:32.335Z,9.79
2023-04-16T02:10:59.450Z,9.82
2023-04-16T02:13:26.064Z,9.82
2023-04-16T02:15:53.108Z,9.83
2023-04-16T02:18:19.538Z,9.83
2023-04-16T02:20:47.718Z,9.84
2023-04-16T02:23:14.212Z,9.88
2023-04-16T02:25:45.953Z,9.94
2023-04-16T02:28:15.044Z,9.90
2023-04-16T02:30:41.668Z,9.83
2023-04-16T02:33:09.698Z,9.82
2023-04-16T02:35:36.990Z,9.81
2023-04-16T02:38:04.538Z,9.88
2023-04-16T02:40:31.641Z,9.93
2023-04-16T02:42:58.428Z,9.89
2023-04-16T02:45:25.061Z,9.83
2023-04-16T02:47:51.870Z,9.78
2023-04-16T02:50:18.914Z,9.79
2023-04-16T02:52:45.225Z,9.80
2023-04-16T02:55:11.743Z,9.79
2023-04-16T02:57:38.172Z,9.76
2023-04-16T03:00:04.965Z,9.74
2023-04-16T03:02:31.473Z,9.77
2023-04-16T03:04:57.875Z,9.73
2023-04-16T03:07:24.460Z,9.66
2023-04-16T03:09:50.766Z,9.69
2023-04-16T03:12:17.068Z,9.77
2023-04-16T03:14:43.588Z,9.64
2023-04-16T03:17:09.891Z,9.80
2023-04-16T03:19:36.288Z,9.77
2023-04-16T03:22:02.726Z,9.75
2023-04-16T03:24:29.051Z,9.74
2023-04-16T03:26:57.550Z,9.74
2023-04-16T03:29:24.051Z,9.75
2023-04-16T03:31:50.358Z,9.69
2023-04-16T03:34:16.784Z,9.71
2023-04-16T03:36:43.472Z,9.63
2023-04-16T03:39:10.398Z,9.63
2023-04-16T03:41:36.947Z,9.69
2023-04-16T03:44:03.259Z,9.67
2023-04-16T03:46:30.031Z,9.70
2023-04-16T03:48:56.427Z,9.71
2023-04-16T03:51:22.842Z,9.70
2023-04-16T03:53:49.144Z,9.70
2023-04-16T03:56:15.529Z,9.69
2023-04-16T03:58:41.936Z,9.67
2023-04-16T04:01:08.608Z,9.61
2023-04-16T04:03:35.437Z,9.62
2023-04-16T04:06:06.411Z,9.63
2023-04-16T04:08:32.727Z,9.62
2023-04-16T04:10:59.112Z,9.65
2023-04-16T04:13:25.765Z,9.63
2023-04-16T04:15:52.583Z,9.72
2023-04-16T04:18:18.913Z,9.66
2023-04-16T04:20:45.230Z,9.69
2023-04-16T04:23:11.691Z,9.69
2023-04-16T04:25:38.094Z,9.64
2023-04-16T04:28:04.591Z,9.60
2023-04-16T04:30:31.134Z,9.59
2023-04-16T04:32:57.620Z,9.57
2023-04-16T04:35:23.940Z,9.57
2023-04-16T04:37:50.328Z,9.54
2023-04-16T04:40:16.796Z,9.58
2023-04-16T04:42:43.219Z,9.57
2023-04-16T04:45:10.374Z,9.54
2023-04-16T04:47:37.192Z,9.58
2023-04-16T04:50:03.881Z,9.55
2023-04-16T04:52:30.354Z,9.63
2023-04-16T04:54:56.950Z,9.67
2023-04-16T04:57:23.462Z,9.60
2023-04-16T04:59:49.809Z,9.61
2023-04-16T05:02:16.363Z,9.60
2023-04-16T05:04:42.931Z,9.54
2023-04-16T05:07:09.280Z,9.53
2023-04-16T05:09:35.578Z,9.53
2023-04-16T05:12:02.030Z,9.52
2023-04-16T05:14:28.328Z,9.51
2023-04-16T05:16:54.695Z,9.51
2023-04-16T05:19:21.115Z,9.52
2023-04-16T05:21:47.432Z,9.56
2023-04-16T05:24:15.121Z,9.52
2023-04-16T05:26:41.831Z,9.52
2023-04-16T05:29:08.457Z,9.48
2023-04-16T05:31:35.019Z,9.69
2023-04-16T05:34:01.398Z,9.58
2023-04-16T05:36:28.033Z,9.55
2023-04-16T05:38:54.751Z,9.52
2023-04-16T05:41:21.139Z,9.52
2023-04-16T05:43:47.571Z,9.53
2023-04-16T05:46:13.971Z,9.50
2023-04-16T05:48:40.321Z,9.51
2023-04-16T05:51:06.756Z,9.50
2023-04-16T05:53:33.291Z,9.56
2023-04-16T05:55:59.732Z,9.52
2023-04-16T05:58:26.223Z,9.61
2023-04-16T06:00:52.642Z,9.58
2023-04-16T06:03:18.993Z,9.54
2023-04-16T06:05:45.650Z,9.50
2023-04-16T06:08:12.132Z,9.50
2023-04-16T06:10:38.940Z,9.52
2023-04-16T06:13:05.483Z,9.50
2023-04-16T06:15:31.780Z,9.48
2023-04-16T06:18:00.677Z,9.54
2023-04-16T06:20:27.339Z,9.55
2023-04-16T06:22:53.893Z,9.53
2023-04-16T06:25:20.551Z,9.58
2023-04-16T06:27:46.861Z,9.59
2023-04-16T06:30:14.946Z,9.54
2023-04-16T06:32:42.775Z,9.57
2023-04-16T06:35:09.937Z,9.58
2023-04-16T06:37:36.243Z,9.57
2023-04-16T06:40:03.718Z,9.58
2023-04-16T06:42:30.125Z,9.57
2023-04-16T06:44:56.477Z,9.62
2023-04-16T06:47:22.927Z,9.65
2023-04-16T06:49:49.609Z,9.59
2023-04-16T06:52:16.330Z,9.51
2023-04-16T06:54:42.697Z,9.60
2023-04-16T06:57:09.063Z,9.51
2023-04-16T06:59:35.454Z,9.61
2023-04-16T07:02:02.113Z,9.60
2023-04-16T07:04:28.828Z,9.64
2023-04-16T07:06:55.206Z,9.63
2023-04-16T07:09:21.613Z,9.58
2023-04-16T07:11:48.265Z,9.58
2023-04-16T07:14:14.811Z,9.63
2023-04-16T07:16:41.152Z,9.61
2023-04-16T07:19:07.766Z,9.61
2023-04-16T07:21:34.730Z,9.63
2023-04-16T07:24:01.221Z,9.63
2023-04-16T07:26:27.601Z,9.61
2023-04-16T07:28:53.955Z,9.63
2023-04-16T07:31:20.422Z,9.63
2023-04-16T07:33:46.849Z,9.64
2023-04-16T07:36:13.353Z,9.66
2023-04-16T07:38:39.722Z,9.69
2023-04-16T07:41:06.115Z,9.66
2023-04-16T07:43:32.465Z,9.69
2023-04-16T07:45:58.860Z,9.66
2023-04-16T07:48:25.491Z,9.69
2023-04-16T07:50:52.633Z,9.71
2023-04-16T07:53:19.004Z,9.71
2023-04-16T07:55:45.351Z,9.79
2023-04-16T07:58:11.739Z,9.77
2023-04-16T08:00:38.434Z,9.79
2023-04-16T08:03:05.110Z,9.75
2023-04-16T08:05:32.059Z,9.72
2023-04-16T08:07:58.496Z,9.71
2023-04-16T08:10:25.086Z,9.76
2023-04-16T08:12:51.679Z,9.79
2023-04-16T08:15:18.061Z,9.84
2023-04-16T08:17:44.997Z,9.80
2023-04-16T08:20:15.002Z,9.80
2023-04-16T08:22:43.360Z,9.83
2023-04-16T08:25:10.074Z,9.86
2023-04-16T08:27:36.651Z,10.02
2023-04-16T08:30:04.226Z,9.99
2023-04-16T08:32:30.933Z,9.91
2023-04-16T08:34:57.915Z,9.92
2023-04-16T08:37:25.484Z,9.91
2023-04-16T08:39:51.880Z,9.94
2023-04-16T08:42:30.880Z,9.98
2023-04-16T08:45:08.053Z,10.03
2023-04-16T08:47:35.793Z,10.02
2023-04-16T08:50:03.920Z,10.02
2023-04-16T08:52:31.823Z,10.05
2023-04-16T08:55:04.775Z,10.10
2023-04-16T08:57:39.811Z,10.10
2023-04-16T09:00:07.911Z,10.10
2023-04-16T09:02:35.007Z,10.12
2023-04-16T09:05:05.212Z,10.15
2023-04-16T09:07:33.329Z,10.12
2023-04-16T09:10:00.849Z,10.15
2023-04-16T09:12:27.902Z,10.17
2023-04-16T09:14:56.402Z,10.08
2023-04-16T09:17:23.046Z,10.09
2023-04-16T09:19:49.448Z,10.12
2023-04-16T09:22:16.793Z,10.11
2023-04-16T09:24:43.225Z,10.02
2023-04-16T09:27:10.053Z,9.98
2023-04-16T09:29:41.159Z,9.99
2023-04-16T09:32:09.787Z,10.03
2023-04-16T09:34:54.223Z,10.01
2023-04-16T09:37:21.009Z,9.96
2023-04-16T09:39:59.881Z,9.92
2023-04-16T09:42:29.062Z,9.87
2023-04-16T09:44:57.844Z,9.91
2023-04-16T09:47:38.668Z,9.96
2023-04-16T09:50:05.591Z,9.99
2023-04-16T09:52:31.866Z,9.97
2023-04-16T09:55:00.061Z,10.03
2023-04-16T09:57:26.596Z,10.16
2023-04-16T09:59:54.932Z,10.17
2023-04-16T10:02:21.368Z,9.95
2023-04-16T10:04:53.072Z,9.94
2023-04-16T10:07:20.135Z,9.93
2023-04-16T10:09:48.678Z,9.95
2023-04-16T10:12:16.170Z,9.88
2023-04-16T10:14:42.699Z,9.71
2023-04-16T10:17:09.988Z,9.69
2023-04-16T10:19:36.756Z,9.75
2023-04-16T10:22:04.343Z,9.84
2023-04-16T10:24:32.663Z,9.85
2023-04-16T10:26:59.851Z,9.84
2023-04-16T10:29:28.807Z,9.81
2023-04-16T10:31:56.571Z,9.89
2023-04-16T10:34:24.831Z,10.09
2023-04-16T10:36:53.568Z,10.02
2023-04-16T10:39:28.352Z,10.05
2023-04-16T10:42:12.185Z,10.04
2023-04-16T10:44:41.891Z,10.00
2023-04-16T10:47:11.288Z,10.07
2023-04-16T10:49:37.825Z,10.07
2023-04-16T10:52:10.668Z,10.17
2023-04-16T10:54:38.114Z,10.17
2023-04-16T10:57:10.018Z,10.38
2023-04-16T10:59:37.734Z,10.30
2023-04-16T11:02:09.204Z,10.30
2023-04-16T11:04:42.384Z,10.31
2023-04-16T11:07:11.796Z,10.37
2023-04-16T11:09:44.179Z,10.54
2023-04-16T11:12:13.664Z,10.51
2023-04-16T11:14:43.075Z,10.51
2023-04-16T11:17:10.052Z,10.47
2023-04-16T11:19:36.446Z,10.41
2023-04-16T11:22:03.090Z,10.48
2023-04-16T11:24:30.753Z,10.44
2023-04-16T11:26:57.127Z,10.42
2023-04-16T11:29:23.717Z,10.35
2023-04-16T11:31:51.786Z,10.44
2023-04-16T11:34:18.732Z,10.49
2023-04-16T11:36:46.298Z,10.75
2023-04-16T11:39:13.021Z,10.87
2023-04-16T11:41:44.149Z,10.79
2023-04-16T11:44:20.994Z,10.87
2023-04-16T11:46:47.527Z,10.97
2023-04-16T11:49:14.100Z,10.87
2023-04-16T11:51:42.358Z,10.80
2023-04-16T11:54:11.835Z,10.79
2023-04-16T11:56:38.881Z,10.81
2023-04-16T11:59:34.969Z,10.65
2023-04-16T12:02:01.631Z,10.61
2023-04-16T12:04:28.204Z,10.58
2023-04-16T12:07:10.754Z,10.58
2023-04-16T12:09:40.535Z,10.50
2023-04-16T12:12:25.263Z,10.52
2023-04-16T12:14:52.206Z,10.65
2023-04-16T12:17:20.048Z,10.76
2023-04-16T12:19:57.860Z,10.77
2023-04-16T12:22:36.848Z,10.90
2023-04-16T12:25:05.767Z,10.97
2023-04-16T12:27:53.456Z,10.97
2023-04-16T12:30:22.642Z,11.05
2023-04-16T12:32:51.215Z,11.11
2023-04-16T12:35:34.018Z,11.14
2023-04-16T12:38:00.820Z,11.18
2023-04-16T12:40:27.464Z,11.14
2023-04-16T12:42:53.933Z,11.13
2023-04-16T12:45:20.400Z,11.15
2023-04-16T12:47:47.322Z,11.18
2023-04-16T12:50:13.977Z,11.20
2023-04-16T12:52:40.373Z,11.18
2023-04-16T12:55:07.008Z,11.08
2023-04-16T12:57:33.448Z,10.94
2023-04-16T12:59:59.856Z,10.92
2023-04-16T13:02:27.502Z,10.93
2023-04-16T13:04:55.051Z,10.95
2023-04-16T13:07:21.616Z,10.81
2023-04-16T13:09:48.414Z,10.81
2023-04-16T13:12:14.872Z,10.82
2023-04-16T13:14:42.421Z,10.74
2023-04-16T13:17:10.765Z,10.64
2023-04-16T13:19:37.182Z,10.75
2023-04-16T13:22:03.593Z,10.76
2023-04-16T13:24:30.651Z,10.69
2023-04-16T13:26:57.231Z,10.67
2023-04-16T13:29:23.908Z,10.71
2023-04-16T13:31:50.417Z,10.62
2023-04-16T13:34:17.136Z,10.59
2023-04-16T13:36:43.548Z,10.55
2023-04-16T13:39:10.504Z,10.48
2023-04-16T13:41:40.245Z,10.58
2023-04-16T13:44:06.599Z,10.57
2023-04-16T13:46:33.552Z,10.58
2023-04-16T13:48:59.978Z,10.48
2023-04-16T13:51:26.283Z,10.45
2023-04-16T13:53:54.045Z,10.57
2023-04-16T13:56:20.453Z,10.52
2023-04-16T13:58:46.789Z,10.50
2023-04-16T14:01:13.211Z,10.42
2023-04-16T14:03:39.593Z,10.41
2023-04-16T14:06:05.921Z,10.38
2023-04-16T14:08:32.598Z,10.48
2023-04-16T14:10:58.956Z,10.57
2023-04-16T14:13:25.629Z,10.51
2023-04-16T14:15:55.376Z,10.55
2023-04-16T14:18:21.822Z,10.46
2023-04-16T14:20:48.174Z,10.55
2023-04-16T14:23:14.612Z,10.55
2023-04-16T14:25:41.022Z,10.52
2023-04-16T14:28:07.454Z,10.49
2023-04-16T14:30:33.889Z,10.45
2023-04-16T14:33:00.352Z,10.50
2023-04-16T14:35:26.833Z,10.54
2023-04-16T14:37:53.298Z,10.54
2023-04-16T14:40:19.720Z,10.50
2023-04-16T14:42:46.021Z,10.50
2023-04-16T14:45:12.474Z,10.43
2023-04-16T14:47:39.022Z,10.52
2023-04-16T14:50:06.000Z,10.52
2023-04-16T14:52:33.092Z,10.59
2023-04-16T14:54:59.851Z,10.69
2023-04-16T14:57:26.161Z,10.57
2023-04-16T14:59:52.603Z,10.60
2023-04-16T15:02:19.472Z,10.62
2023-04-16T15:04:45.938Z,10.61
2023-04-16T15:07:12.358Z,10.78
2023-04-16T15:09:38.662Z,10.85
2023-04-16T15:12:05.160Z,10.80
2023-04-16T15:14:31.541Z,10.73
2023-04-16T15:16:58.136Z,10.67
2023-04-16T15:19:25.467Z,10.62
2023-04-16T15:21:51.833Z,10.79
2023-04-16T15:24:18.289Z,10.83
2023-04-16T15:26:44.587Z,10.91
2023-04-16T15:29:10.982Z,10.87
2023-04-16T15:31:37.458Z,11.07
2023-04-16T15:34:03.861Z,10.94
2023-04-16T15:36:30.223Z,10.92
2023-04-16T15:38:56.628Z,10.93
2023-04-16T15:41:22.961Z,10.82
2023-04-16T15:43:49.349Z,10.76
2023-04-16T15:46:15.677Z,10.86
2023-04-16T15:48:42.618Z,10.87
2023-04-16T15:51:09.614Z,10.87
2023-04-16T15:53:36.234Z,10.84
2023-04-16T15:56:03.013Z,10.71
2023-04-16T15:58:29.392Z,10.72
2023-04-16T16:00:55.824Z,10.69
2023-04-16T16:03:22.740Z,10.72
2023-04-16T16:05:49.275Z,10.71
2023-04-16T16:08:15.995Z,10.74
2023-04-16T16:10:42.595Z,10.59
2023-04-16T16:13:09.013Z,10.59
2023-04-16T16:15:35.369Z,10.56
2023-04-16T16:18:01.872Z,10.60
2023-04-16T16:20:28.217Z,10.63
2023-04-16T16:22:54.620Z,10.52
2023-04-16T16:25:21.044Z,10.59
2023-04-16T16:27:47.548Z,10.73
2023-04-16T16:30:14.005Z,10.79
2023-04-16T16:32:40.313Z,10.75
2023-04-16T16:35:08.247Z,10.82
2023-04-16T16:37:35.209Z,10.85
2023-04-16T16:40:01.776Z,10.93
2023-04-16T16:42:28.391Z,10.86
2023-04-16T16:44:56.762Z,10.79
2023-04-16T16:47:24.165Z,10.81
2023-04-16T16:49:50.806Z,10.76
2023-04-16T16:52:17.252Z,10.83
2023-04-16T16:54:43.584Z,10.69
2023-04-16T16:57:10.048Z,10.66
2023-04-16T16:59:36.401Z,10.68
2023-04-16T17:02:03.245Z,10.66
2023-04-16T17:04:29.617Z,10.63
2023-04-16T17:06:56.068Z,10.65
2023-04-16T17:09:22.450Z,10.59
2023-04-16T17:11:49.129Z,10.46
2023-04-16T17:14:15.431Z,10.54
2023-04-16T17:16:42.116Z,10.47
2023-04-16T17:19:08.736Z,10.56
2023-04-16T17:21:35.292Z,10.50
2023-04-16T17:24:01.673Z,10.44
2023-04-16T17:26:28.022Z,10.41
2023-04-16T17:28:54.450Z,10.47
2023-04-16T17:31:20.791Z,10.47
2023-04-16T17:33:47.293Z,10.35
2023-04-16T17:36:13.688Z,10.30
2023-04-16T17:38:41.254Z,10.26
2023-04-16T17:41:09.047Z,10.24
2023-04-16T17:43:35.355Z,10.23
2023-04-16T17:46:01.959Z,10.18
2023-04-16T17:48:28.457Z,10.16
2023-04-16T17:50:54.877Z,10.19
2023-04-16T17:53:21.315Z,10.15
2023-04-16T17:55:52.422Z,10.15
2023-04-16T17:58:19.863Z,10.18
2023-04-16T18:00:46.519Z,10.15
2023-04-16T18:03:13.038Z,10.12
2023-04-16T18:05:39.735Z,10.09
2023-04-16T18:08:06.040Z,10.11
2023-04-16T18:10:32.698Z,10.12
2023-04-16T18:12:59.205Z,10.09
2023-04-16T18:15:25.603Z,10.09
2023-04-16T18:17:51.988Z,10.10
2023-04-16T18:20:18.437Z,10.11
2023-04-16T18:22:45.662Z,10.12
2023-04-16T18:25:12.177Z,10.14
2023-04-16T18:27:39.362Z,10.10
2023-04-16T18:30:06.575Z,10.09
2023-04-16T18:32:33.565Z,9.99
2023-04-16T18:35:00.282Z,10.05
2023-04-16T18:37:26.569Z,10.03
2023-04-16T18:39:52.979Z,10.01
2023-04-16T18:42:19.435Z,10.06
2023-04-16T18:44:51.909Z,10.03
2023-04-16T18:47:18.343Z,9.97
2023-04-16T18:49:44.838Z,10.07
2023-04-16T18:52:11.128Z,10.00
2023-04-16T18:54:37.666Z,9.93
2023-04-16T18:57:04.756Z,9.96
2023-04-16T18:59:31.166Z,9.93
2023-04-16T19:01:57.476Z,9.92
2023-04-16T19:04:24.279Z,9.87
2023-04-16T19:06:50.885Z,9.85
2023-04-16T19:09:17.549Z,9.90
2023-04-16T19:11:43.978Z,9.94
2023-04-16T19:14:10.329Z,9.94
2023-04-16T19:16:36.845Z,9.98
2023-04-16T19:19:03.281Z,9.90
2023-04-16T19:21:29.647Z,9.90
2023-04-16T19:23:56.029Z,9.94
2023-04-16T19:26:22.535Z,9.92
2023-04-16T19:28:48.841Z,9.91
2023-04-16T19:31:15.337Z,9.98
2023-04-16T19:33:41.791Z,9.91
2023-04-16T19:36:08.226Z,9.89
2023-04-16T19:38:34.537Z,9.86
2023-04-16T19:41:00.845Z,9.89
2023-04-16T19:43:28.409Z,9.88
2023-04-16T19:45:56.322Z,9.81
2023-04-16T19:48:23.301Z,9.79
2023-04-16T19:50:49.666Z,9.76
2023-04-16T19:53:16.030Z,9.84
2023-04-16T19:55:42.878Z,9.84
2023-04-16T19:58:09.754Z,9.84
2023-04-16T20:00:37.936Z,9.85
2023-04-16T20:03:05.007Z,9.78
2023-04-16T20:05:31.537Z,9.76
2023-04-16T20:07:58.251Z,9.76
2023-04-16T20:10:24.660Z,9.75
2023-04-16T20:12:51.051Z,9.74
2023-04-16T20:15:18.499Z,9.68
2023-04-16T20:17:45.297Z,9.73
2023-04-16T20:20:11.929Z,9.76
2023-04-16T20:22:39.424Z,9.74
2023-04-16T20:25:06.319Z,9.75
2023-04-16T20:27:33.457Z,9.73
2023-04-16T20:30:00.312Z,9.66
2023-04-16T20:32:27.840Z,9.65
2023-04-16T20:34:54.643Z,9.60
2023-04-16T20:37:21.122Z,9.58
2023-04-16T20:39:47.444Z,9.56
2023-04-16T20:42:13.835Z,9.59
2023-04-16T20:44:40.594Z,9.59
2023-04-16T20:47:11.324Z,9.57
2023-04-16T20:49:37.753Z,9.51
2023-04-16T20:52:04.919Z,9.53
2023-04-16T20:54:31.392Z,9.50
2023-04-16T20:56:58.105Z,9.48
2023-04-16T20:59:24.751Z,9.52
2023-04-16T21:01:51.246Z,9.53
2023-04-16T21:04:18.384Z,9.51
2023-04-16T21:06:44.837Z,9.47
2023-04-16T21:09:12.223Z,9.48
2023-04-16T21:11:38.861Z,9.47
2023-04-16T21:14:06.102Z,9.51
2023-04-16T21:16:32.697Z,9.50
2023-04-16T21:18:59.397Z,9.46
2023-04-16T21:21:25.712Z,9.46
2023-04-16T21:23:52.110Z,9.45
2023-04-16T21:26:18.427Z,9.46
2023-04-16T21:28:44.945Z,9.42
2023-04-16T21:31:11.297Z,9.47
2023-04-16T21:33:37.708Z,9.44
2023-04-16T21:36:04.258Z,9.48
2023-04-16T21:38:30.912Z,9.43
2023-04-16T21:40:57.195Z,9.46
2023-04-16T21:43:24.140Z,9.40
2023-04-16T21:45:53.688Z,9.41
2023-04-16T21:48:23.297Z,9.49
2023-04-16T21:50:56.661Z,9.51
2023-04-16T21:53:22.958Z,9.49
2023-04-16T21:55:49.316Z,9.45
2023-04-16T21:58:15.766Z,9.49
2023-04-16T22:00:42.312Z,9.50
2023-04-16T22:03:08.964Z,9.47
2023-04-16T22:05:35.478Z,9.49
2023-04-16T22:08:10.839Z,9.54
2023-04-16T22:10:47.627Z,9.51
2023-04-16T22:13:14.053Z,9.43
2023-04-16T22:15:40.356Z,9.45
2023-04-16T22:18:06.748Z,9.46
2023-04-16T22:20:33.044Z,9.51
2023-04-16T22:22:59.409Z,9.49
2023-04-16T22:25:25.794Z,9.51
2023-04-16T22:27:52.517Z,9.50
2023-04-16T22:30:19.000Z,9.49
2023-04-16T22:32:45.970Z,9.49
2023-04-16T22:35:12.560Z,9.49
2023-04-16T22:37:38.868Z,9.50
2023-04-16T22:40:06.377Z,9.53
2023-04-16T22:42:32.779Z,9.48
2023-04-16T22:44:59.068Z,9.47
2023-04-16T22:47:25.493Z,9.44
2023-04-16T22:49:52.577Z,9.51
2023-04-16T22:52:18.954Z,9.46
2023-04-16T22:54:45.275Z,9.39
2023-04-16T22:57:11.693Z,9.47
2023-04-16T22:59:38.087Z,9.45
2023-04-16T23:02:04.526Z,9.36
2023-04-16T23:04:30.937Z,9.38
2023-04-16T23:06:57.369Z,9.41
2023-04-16T23:09:24.129Z,9.39
2023-04-16T23:11:50.428Z,9.39
2023-04-16T23:14:16.959Z,9.41
2023-04-16T23:16:43.445Z,9.40
2023-04-16T23:19:09.952Z,9.41
2023-04-16T23:21:36.578Z,9.38
2023-04-16T23:24:02.951Z,9.40
2023-04-16T23:26:29.245Z,9.37
2023-04-16T23:28:55.691Z,9.39
2023-04-16T23:31:22.033Z,9.38
2023-04-16T23:33:48.622Z,9.43
2023-04-16T23:36:15.034Z,9.38
2023-04-16T23:38:41.359Z,9.43
2023-04-16T23:41:08.048Z,9.37
2023-04-16T23:43:34.369Z,9.40
2023-04-16T23:46:00.956Z,9.40
2023-04-16T23:48:28.087Z,9.39
2023-04-16T23:50:54.488Z,9.39
2023-04-16T23:53:20.788Z,9.37
2023-04-16T23:55:47.185Z,9.41
2023-04-16T23:58:13.588Z,9.45
